createdAt,value
2022-08-28T00:02:24.093Z,60.03
2022-08-28T00:04:50.812Z,59.76
2022-08-28T00:07:17.458Z,59.95
2022-08-28T00:09:44.207Z,60.07
2022-08-28T00:12:12.389Z,60.65
2022-08-28T00:14:39.644Z,60.43
2022-08-28T00:17:06.304Z,60.46
2022-08-28T00:19:36.697Z,60.18
2022-08-28T00:22:05.670Z,60.17
2022-08-28T00:24:32.047Z,60.30
2022-08-28T00:27:16.941Z,60.02
2022-08-28T00:29:45.083Z,60.06
2022-08-28T00:32:11.525Z,59.93
2022-08-28T00:34:38.846Z,59.98
2022-08-28T00:37:06.242Z,59.97
2022-08-28T00:39:32.942Z,60.50
2022-08-28T00:41:59.470Z,59.88
2022-08-28T00:44:27.926Z,59.93
2022-08-28T00:46:57.666Z,60.63
2022-08-28T00:49:28.280Z,60.14
2022-08-28T00:52:08.590Z,60.42
2022-08-28T00:54:59.369Z,60.36
2022-08-28T00:57:34.750Z,60.48
2022-08-28T01:00:01.743Z,60.60
2022-08-28T01:02:28.369Z,61.66
2022-08-28T01:04:55.455Z,60.51
2022-08-28T01:07:23.116Z,60.74
2022-08-28T01:09:54.031Z,60.08
2022-08-28T01:12:27.929Z,60.25
2022-08-28T01:14:59.886Z,60.66
2022-08-28T01:17:31.156Z,60.80
2022-08-28T01:20:03.239Z,61.19
2022-08-28T01:22:29.591Z,60.71
2022-08-28T01:25:00.769Z,60.66
2022-08-28T01:27:27.805Z,60.67
2022-08-28T01:29:54.315Z,60.94
2022-08-28T01:32:33.059Z,60.54
2022-08-28T01:35:00.972Z,60.43
2022-08-28T01:37:28.195Z,61.02
2022-08-28T01:39:54.693Z,60.76
2022-08-28T01:42:21.668Z,60.91
2022-08-28T01:44:49.166Z,60.62
2022-08-28T01:47:15.836Z,61.25
2022-08-28T01:49:42.269Z,60.99
2022-08-28T01:52:09.404Z,61.00
2022-08-28T01:54:38.385Z,61.07
2022-08-28T01:57:05.683Z,60.88
2022-08-28T01:59:33.216Z,61.07
2022-08-28T02:01:59.874Z,61.66
2022-08-28T02:04:31.733Z,61.98
2022-08-28T02:06:59.273Z,62.08
2022-08-28T02:09:25.700Z,61.90
2022-08-28T02:11:52.663Z,61.63
2022-08-28T02:14:19.257Z,62.39
2022-08-28T02:16:45.717Z,62.64
2022-08-28T02:19:12.248Z,62.29
2022-08-28T02:21:39.260Z,62.62
2022-08-28T02:24:05.919Z,62.73
2022-08-28T02:26:32.726Z,62.27
2022-08-28T02:28:59.417Z,62.80
2022-08-28T02:31:26.821Z,62.89
2022-08-28T02:33:53.265Z,62.96
2022-08-28T02:36:22.372Z,63.18
2022-08-28T02:38:48.856Z,63.37
2022-08-28T02:41:15.394Z,63.23
2022-08-28T02:43:41.871Z,63.50
2022-08-28T02:46:09.113Z,63.62
2022-08-28T02:48:38.035Z,63.52
2022-08-28T02:51:08.261Z,63.37
2022-08-28T02:53:35.763Z,63.67
2022-08-28T02:56:03.295Z,63.50
2022-08-28T02:58:32.596Z,63.74
2022-08-28T03:01:01.697Z,64.23
2022-08-28T03:03:31.205Z,64.38
2022-08-28T03:05:59.785Z,63.85
2022-08-28T03:08:27.384Z,63.33
2022-08-28T03:10:54.155Z,64.01
2022-08-28T03:13:23.049Z,64.06
2022-08-28T03:15:56.036Z,64.25
2022-08-28T03:18:24.347Z,64.25
2022-08-28T03:20:52.158Z,64.17
2022-08-28T03:23:27.599Z,64.11
2022-08-28T03:26:00.864Z,64.08
2022-08-28T03:28:31.941Z,64.05
2022-08-28T03:30:58.805Z,64.07
2022-08-28T03:33:26.782Z,64.27
2022-08-28T03:35:55.549Z,64.29
2022-08-28T03:38:22.942Z,64.80
2022-08-28T03:40:52.104Z,64.63
2022-08-28T03:43:21.984Z,64.97
2022-08-28T03:46:04.275Z,64.93
2022-08-28T03:48:34.648Z,65.21
2022-08-28T03:51:02.235Z,65.30
2022-08-28T03:53:29.915Z,64.62
2022-08-28T03:55:57.945Z,65.58
2022-08-28T03:58:25.172Z,65.82
2022-08-28T04:00:51.875Z,65.56
2022-08-28T04:03:18.935Z,65.58
2022-08-28T04:05:46.723Z,65.77
2022-08-28T04:08:16.665Z,66.01
2022-08-28T04:10:44.566Z,65.95
2022-08-28T04:13:12.584Z,65.97
2022-08-28T04:15:40.944Z,66.25
2022-08-28T04:18:08.360Z,66.53
2022-08-28T04:20:35.098Z,66.51
2022-08-28T04:23:03.788Z,66.41
2022-08-28T04:25:30.948Z,66.97
2022-08-28T04:27:57.508Z,66.86
2022-08-28T04:30:24.200Z,67.35
2022-08-28T04:32:50.630Z,66.65
2022-08-28T04:35:17.057Z,66.60
2022-08-28T04:37:43.790Z,67.33
2022-08-28T04:40:12.885Z,67.42
2022-08-28T04:42:40.117Z,67.16
2022-08-28T04:45:07.420Z,67.33
2022-08-28T04:47:38.813Z,66.86
2022-08-28T04:50:06.960Z,67.39
2022-08-28T04:52:33.516Z,67.48
2022-08-28T04:55:00.243Z,67.18
2022-08-28T04:57:26.670Z,67.55
2022-08-28T04:59:53.128Z,67.37
2022-08-28T05:02:19.906Z,67.90
2022-08-28T05:04:47.235Z,67.28
2022-08-28T05:07:13.865Z,67.76
2022-08-28T05:09:40.234Z,67.95
2022-08-28T05:12:06.694Z,68.14
2022-08-28T05:14:33.186Z,67.96
2022-08-28T05:16:59.819Z,68.17
2022-08-28T05:19:27.892Z,68.42
2022-08-28T05:21:54.872Z,68.57
2022-08-28T05:24:22.424Z,68.98
2022-08-28T05:26:49.006Z,68.82
2022-08-28T05:29:16.691Z,68.38
2022-08-28T05:31:43.809Z,68.44
2022-08-28T05:34:10.469Z,68.23
2022-08-28T05:36:38.850Z,68.51
2022-08-28T05:39:08.844Z,68.78
2022-08-28T05:41:36.758Z,67.99
2022-08-28T05:44:06.661Z,68.67
2022-08-28T05:46:34.535Z,68.35
2022-08-28T05:49:00.997Z,68.95
2022-08-28T05:51:28.144Z,68.15
2022-08-28T05:53:55.695Z,66.94
2022-08-28T05:56:25.230Z,67.37
2022-08-28T05:58:51.731Z,67.64
2022-08-28T06:01:19.541Z,67.20
2022-08-28T06:03:56.101Z,66.71
2022-08-28T06:06:24.573Z,67.02
2022-08-28T06:08:58.685Z,66.31
2022-08-28T06:11:27.016Z,65.76
2022-08-28T06:14:02.687Z,66.50
2022-08-28T06:16:31.187Z,66.14
2022-08-28T06:18:58.056Z,66.08
2022-08-28T06:21:24.736Z,65.93
2022-08-28T06:23:51.721Z,66.10
2022-08-28T06:26:18.244Z,65.59
2022-08-28T06:28:44.689Z,66.04
2022-08-28T06:31:28.814Z,65.68
2022-08-28T06:33:58.520Z,65.56
2022-08-28T06:36:29.986Z,65.63
2022-08-28T06:39:00.825Z,65.74
2022-08-28T06:41:28.418Z,65.83
2022-08-28T06:43:56.112Z,63.90
2022-08-28T06:46:22.954Z,64.34
2022-08-28T06:48:49.727Z,64.62
2022-08-28T06:51:16.727Z,64.64
2022-08-28T06:53:45.431Z,65.70
2022-08-28T06:56:25.698Z,64.02
2022-08-28T06:58:55.996Z,64.08
2022-08-28T07:01:24.361Z,64.23
2022-08-28T07:03:53.715Z,64.04
2022-08-28T07:06:22.109Z,64.51
2022-08-28T07:08:49.120Z,64.25
2022-08-28T07:11:19.776Z,62.57
2022-08-28T07:13:46.449Z,63.35
2022-08-28T07:16:16.106Z,62.38
2022-08-28T07:18:44.386Z,62.99
2022-08-28T07:21:12.613Z,62.12
2022-08-28T07:23:41.990Z,60.46
2022-08-28T07:26:12.652Z,60.61
2022-08-28T07:28:39.625Z,60.49
2022-08-28T07:31:13.262Z,60.56
2022-08-28T07:33:40.411Z,60.13
2022-08-28T07:36:15.775Z,59.00
2022-08-28T07:38:45.857Z,58.00
2022-08-28T07:41:26.983Z,57.92
2022-08-28T07:44:12.094Z,57.75
2022-08-28T07:46:38.684Z,58.74
2022-08-28T07:49:06.908Z,57.51
2022-08-28T07:51:33.465Z,56.50
2022-08-28T07:54:00.349Z,56.36
2022-08-28T07:56:29.607Z,56.47
2022-08-28T07:58:58.264Z,56.30
2022-08-28T08:01:26.477Z,56.60
2022-08-28T08:03:57.655Z,55.87
2022-08-28T08:06:33.891Z,55.94
2022-08-28T08:09:01.870Z,55.45
2022-08-28T08:11:28.420Z,54.07
2022-08-28T08:14:05.626Z,52.75
2022-08-28T08:16:38.939Z,52.82
2022-08-28T08:19:06.750Z,52.65
2022-08-28T08:21:33.231Z,51.38
2022-08-28T08:23:59.622Z,51.25
2022-08-28T08:26:28.097Z,51.02
2022-08-28T08:28:55.641Z,50.00
2022-08-28T08:31:33.184Z,50.02
2022-08-28T08:34:02.457Z,48.73
2022-08-28T08:36:30.512Z,48.35
2022-08-28T08:38:59.396Z,46.49
2022-08-28T08:41:48.554Z,47.20
2022-08-28T08:44:33.548Z,46.87
2022-08-28T08:47:13.999Z,45.96
2022-08-28T08:49:55.866Z,45.92
2022-08-28T08:52:42.415Z,44.75
2022-08-28T08:55:18.958Z,45.35
2022-08-28T08:57:49.323Z,43.72
2022-08-28T09:00:17.757Z,45.62
2022-08-28T09:02:54.786Z,45.60
2022-08-28T09:05:32.455Z,44.22
2022-08-28T09:08:02.637Z,43.85
2022-08-28T09:10:39.488Z,44.21
2022-08-28T09:13:16.600Z,42.78
2022-08-28T09:15:48.790Z,43.65
2022-08-28T09:18:31.912Z,42.95
2022-08-28T09:21:00.138Z,41.75
2022-08-28T09:23:29.999Z,41.06
2022-08-28T09:26:02.470Z,41.14
2022-08-28T09:28:40.924Z,41.04
2022-08-28T09:31:15.750Z,41.42
2022-08-28T09:33:48.512Z,40.97
2022-08-28T09:36:22.610Z,39.60
2022-08-28T09:39:24.513Z,38.69
2022-08-28T09:42:42.240Z,39.03
2022-08-28T09:45:21.409Z,38.38
2022-08-28T09:47:58.457Z,37.85
2022-08-28T09:50:42.373Z,35.66
2022-08-28T09:53:08.740Z,36.34
2022-08-28T09:55:47.198Z,34.98
2022-08-28T09:58:15.659Z,36.88
2022-08-28T10:00:49.873Z,35.95
2022-08-28T10:03:25.673Z,35.57
2022-08-28T10:06:06.291Z,36.10
2022-08-28T10:08:57.073Z,35.05
2022-08-28T10:11:31.572Z,35.20
2022-08-28T10:14:10.946Z,33.68
2022-08-28T10:17:06.669Z,33.46
2022-08-28T10:19:59.949Z,33.56
2022-08-28T10:22:26.349Z,33.90
2022-08-28T10:25:07.392Z,33.21
2022-08-28T10:27:53.135Z,33.81
2022-08-28T10:30:23.054Z,32.28
2022-08-28T10:33:17.126Z,32.93
2022-08-28T10:35:57.993Z,32.34
2022-08-28T10:38:37.316Z,33.22
2022-08-28T10:41:25.340Z,32.15
2022-08-28T10:43:54.067Z,32.03
2022-08-28T10:46:29.024Z,31.24
2022-08-28T10:49:18.642Z,30.56
2022-08-28T10:51:49.598Z,33.25
2022-08-28T10:54:30.423Z,32.01
2022-08-28T10:57:26.932Z,31.20
2022-08-28T10:59:54.247Z,31.41
2022-08-28T11:02:25.812Z,31.34
2022-08-28T11:04:58.367Z,31.26
2022-08-28T11:07:48.373Z,31.49
2022-08-28T11:10:23.596Z,30.62
2022-08-28T11:12:52.627Z,30.91
2022-08-28T11:15:40.975Z,31.47
2022-08-28T11:18:16.655Z,32.01
2022-08-28T11:21:05.877Z,31.54
2022-08-28T11:23:47.407Z,31.20
2022-08-28T11:26:23.581Z,30.74
2022-08-28T11:28:51.843Z,31.19
2022-08-28T11:31:28.779Z,30.65
2022-08-28T11:33:58.831Z,30.61
2022-08-28T11:36:29.733Z,29.44
2022-08-28T11:38:56.294Z,29.37
2022-08-28T11:41:27.450Z,30.55
2022-08-28T11:43:59.564Z,30.22
2022-08-28T11:46:31.542Z,31.17
2022-08-28T11:49:05.103Z,29.54
2022-08-28T11:51:56.222Z,28.98
2022-08-28T11:54:51.397Z,30.98
2022-08-28T11:57:23.767Z,30.42
2022-08-28T12:00:21.428Z,29.14
2022-08-28T12:02:56.054Z,28.40
2022-08-28T12:05:39.949Z,27.64
2022-08-28T12:08:06.850Z,29.40
2022-08-28T12:10:33.185Z,29.80
2022-08-28T12:13:03.250Z,30.34
2022-08-28T12:15:29.749Z,29.41
2022-08-28T12:18:04.776Z,28.74
2022-08-28T12:21:25.451Z,28.77
2022-08-28T12:24:08.962Z,28.66
2022-08-28T12:26:39.759Z,28.25
2022-08-28T12:29:28.083Z,28.97
2022-08-28T12:32:27.906Z,28.09
2022-08-28T12:34:57.306Z,29.29
2022-08-28T12:37:53.031Z,28.11
2022-08-28T12:40:52.762Z,28.83
2022-08-28T12:43:22.482Z,29.67
2022-08-28T12:45:53.418Z,28.65
2022-08-28T12:48:32.878Z,29.54
2022-08-28T12:51:12.558Z,29.90
2022-08-28T12:53:43.359Z,28.42
2022-08-28T12:56:14.542Z,29.16
2022-08-28T12:58:42.203Z,28.52
2022-08-28T13:01:14.661Z,29.49
2022-08-28T13:03:52.918Z,29.35
2022-08-28T13:06:32.795Z,29.25
2022-08-28T13:09:14.035Z,28.85
2022-08-28T13:11:46.772Z,29.55
2022-08-28T13:14:13.581Z,29.05
2022-08-28T13:16:46.509Z,29.14
2022-08-28T13:19:27.221Z,29.57
2022-08-28T13:22:01.925Z,29.01
2022-08-28T13:24:30.985Z,28.79
2022-08-28T13:27:02.327Z,29.71
2022-08-28T13:29:29.324Z,29.17
2022-08-28T13:32:05.605Z,29.50
2022-08-28T13:34:39.197Z,30.30
2022-08-28T13:37:40.942Z,30.26
2022-08-28T13:40:16.006Z,29.22
2022-08-28T13:42:55.996Z,29.90
2022-08-28T13:45:22.429Z,28.85
2022-08-28T13:47:48.816Z,28.82
2022-08-28T13:50:15.298Z,29.59
2022-08-28T13:52:42.136Z,29.49
2022-08-28T13:55:09.810Z,29.45
2022-08-28T13:57:37.093Z,29.79
2022-08-28T14:00:04.744Z,30.41
2022-08-28T14:02:49.647Z,30.86
2022-08-28T14:05:16.121Z,30.84
2022-08-28T14:07:42.521Z,31.36
2022-08-28T14:10:11.522Z,31.59
2022-08-28T14:12:38.027Z,30.69
2022-08-28T14:15:05.426Z,30.64
2022-08-28T14:17:31.864Z,31.50
2022-08-28T14:20:00.217Z,31.55
2022-08-28T14:22:27.386Z,30.55
2022-08-28T14:24:53.981Z,30.33
2022-08-28T14:27:20.494Z,29.81
2022-08-28T14:29:47.022Z,29.54
2022-08-28T14:32:13.466Z,30.76
2022-08-28T14:34:40.020Z,30.39
2022-08-28T14:37:06.609Z,29.61
2022-08-28T14:39:33.554Z,30.03
2022-08-28T14:42:00.017Z,30.58
2022-08-28T14:44:26.502Z,30.32
2022-08-28T14:46:56.902Z,31.26
2022-08-28T14:49:25.656Z,31.34
2022-08-28T14:51:53.717Z,32.53
2022-08-28T14:54:22.565Z,30.90
2022-08-28T14:56:49.979Z,30.91
2022-08-28T14:59:24.464Z,31.97
2022-08-28T15:01:52.368Z,31.44
2022-08-28T15:04:22.749Z,31.95
2022-08-28T15:06:54.821Z,31.98
2022-08-28T15:09:21.265Z,31.42
2022-08-28T15:11:47.718Z,32.33
2022-08-28T15:14:14.162Z,32.55
2022-08-28T15:16:43.309Z,34.26
2022-08-28T15:19:13.089Z,32.83
2022-08-28T15:21:47.133Z,32.86
2022-08-28T15:24:16.150Z,32.73
2022-08-28T15:26:42.843Z,33.02
2022-08-28T15:29:10.778Z,33.71
2022-08-28T15:31:41.525Z,34.40
2022-08-28T15:34:13.872Z,33.03
2022-08-28T15:36:42.213Z,32.58
2022-08-28T15:39:27.886Z,33.35
2022-08-28T15:41:54.570Z,33.86
2022-08-28T15:44:21.187Z,34.24
2022-08-28T15:46:53.845Z,33.88
2022-08-28T15:49:23.808Z,34.11
2022-08-28T15:51:50.802Z,34.17
2022-08-28T15:54:17.417Z,33.98
2022-08-28T15:56:43.866Z,34.85
2022-08-28T15:59:10.577Z,35.27
2022-08-28T16:01:38.392Z,34.86
2022-08-28T16:04:06.604Z,34.85
2022-08-28T16:06:34.708Z,35.03
2022-08-28T16:09:01.199Z,34.28
2022-08-28T16:11:28.085Z,34.67
2022-08-28T16:13:58.990Z,35.74
2022-08-28T16:16:25.431Z,34.89
2022-08-28T16:18:54.196Z,34.51
2022-08-28T16:21:20.645Z,35.25
2022-08-28T16:23:48.232Z,34.89
2022-08-28T16:26:15.864Z,34.79
2022-08-28T16:28:44.691Z,35.50
2022-08-28T16:31:19.223Z,35.24
2022-08-28T16:33:48.292Z,35.44
2022-08-28T16:36:15.590Z,35.60
2022-08-28T16:38:45.450Z,36.56
2022-08-28T16:41:21.747Z,36.83
2022-08-28T16:43:49.355Z,36.36
2022-08-28T16:46:20.057Z,36.88
2022-08-28T16:48:47.820Z,36.30
2022-08-28T16:51:15.455Z,37.52
2022-08-28T16:53:42.784Z,36.77
2022-08-28T16:56:11.258Z,37.35
2022-08-28T16:58:42.444Z,36.43
2022-08-28T17:01:10.604Z,37.27
2022-08-28T17:03:38.618Z,37.16
2022-08-28T17:06:13.170Z,38.03
2022-08-28T17:08:39.655Z,37.77
2022-08-28T17:11:06.821Z,38.14
2022-08-28T17:13:34.740Z,37.45
2022-08-28T17:16:01.774Z,37.58
2022-08-28T17:18:28.615Z,37.57
2022-08-28T17:21:13.494Z,37.60
2022-08-28T17:23:39.925Z,37.57
2022-08-28T17:26:06.468Z,39.20
2022-08-28T17:28:33.486Z,38.92
2022-08-28T17:31:00.304Z,38.58
2022-08-28T17:33:26.810Z,38.36
2022-08-28T17:35:58.180Z,38.88
2022-08-28T17:38:26.333Z,39.77
2022-08-28T17:40:53.255Z,39.69
2022-08-28T17:43:20.649Z,39.58
2022-08-28T17:45:47.413Z,39.22
2022-08-28T17:48:14.407Z,40.00
2022-08-28T17:50:41.061Z,40.65
2022-08-28T17:53:07.526Z,40.22
2022-08-28T17:55:33.940Z,41.22
2022-08-28T17:58:00.418Z,41.15
2022-08-28T18:00:26.850Z,40.63
2022-08-28T18:02:54.364Z,41.47
2022-08-28T18:05:20.986Z,42.08
2022-08-28T18:07:47.573Z,42.33
2022-08-28T18:10:14.082Z,41.81
2022-08-28T18:12:41.403Z,42.28
2022-08-28T18:15:10.183Z,41.90
2022-08-28T18:17:38.188Z,42.25
2022-08-28T18:20:06.934Z,42.11
2022-08-28T18:22:33.377Z,42.39
2022-08-28T18:24:59.879Z,42.06
2022-08-28T18:27:31.363Z,42.68
2022-08-28T18:29:58.618Z,41.91
2022-08-28T18:32:25.535Z,42.19
2022-08-28T18:34:52.206Z,42.55
2022-08-28T18:37:18.585Z,43.09
2022-08-28T18:39:45.144Z,42.62
2022-08-28T18:42:11.827Z,42.59
2022-08-28T18:44:38.288Z,43.09
2022-08-28T18:47:04.809Z,44.95
2022-08-28T18:49:31.333Z,45.91
2022-08-28T18:51:57.860Z,45.82
2022-08-28T18:54:24.326Z,46.24
2022-08-28T18:56:51.442Z,47.08
2022-08-28T18:59:18.852Z,48.33
2022-08-28T19:01:45.559Z,48.63
2022-08-28T19:04:12.102Z,49.83
2022-08-28T19:06:40.929Z,50.57
2022-08-28T19:09:07.432Z,51.34
2022-08-28T19:11:35.704Z,52.35
2022-08-28T19:14:03.801Z,52.29
2022-08-28T19:16:31.819Z,52.04
2022-08-28T19:18:58.332Z,50.68
2022-08-28T19:21:25.047Z,50.87
2022-08-28T19:23:55.915Z,50.65
2022-08-28T19:26:24.479Z,51.10
2022-08-28T19:28:51.443Z,50.92
2022-08-28T19:31:18.257Z,50.47
2022-08-28T19:33:46.752Z,50.68
2022-08-28T19:36:14.114Z,50.63
2022-08-28T19:38:41.556Z,51.31
2022-08-28T19:41:10.105Z,50.67
2022-08-28T19:43:44.204Z,52.14
2022-08-28T19:46:18.218Z,52.41
2022-08-28T19:48:46.661Z,51.85
2022-08-28T19:51:14.380Z,51.39
2022-08-28T19:53:44.680Z,50.68
2022-08-28T19:56:11.116Z,50.50
2022-08-28T19:58:37.581Z,49.42
2022-08-28T20:01:04.864Z,49.61
2022-08-28T20:03:31.726Z,49.72
2022-08-28T20:06:03.622Z,49.56
2022-08-28T20:08:30.708Z,48.95
2022-08-28T20:10:57.317Z,49.11
2022-08-28T20:13:23.878Z,49.44
2022-08-28T20:15:50.460Z,50.17
2022-08-28T20:18:16.902Z,49.01
2022-08-28T20:20:45.897Z,49.17
2022-08-28T20:23:12.356Z,49.06
2022-08-28T20:25:39.183Z,49.35
2022-08-28T20:28:05.748Z,49.47
2022-08-28T20:30:32.146Z,49.70
2022-08-28T20:33:01.234Z,50.31
2022-08-28T20:35:27.807Z,49.94
2022-08-28T20:37:54.189Z,50.49
2022-08-28T20:40:21.662Z,51.03
2022-08-28T20:42:48.871Z,51.65
2022-08-28T20:45:16.936Z,52.65
2022-08-28T20:47:44.264Z,53.51
2022-08-28T20:50:12.235Z,53.68
2022-08-28T20:52:38.834Z,53.80
2022-08-28T20:55:07.587Z,54.26
2022-08-28T20:57:34.412Z,53.58
2022-08-28T21:00:05.344Z,53.04
2022-08-28T21:02:33.055Z,52.39
2022-08-28T21:04:59.617Z,51.74
2022-08-28T21:07:26.647Z,50.88
2022-08-28T21:10:05.055Z,50.86
2022-08-28T21:12:34.911Z,50.52
2022-08-28T21:15:01.551Z,51.57
2022-08-28T21:17:29.638Z,51.37
2022-08-28T21:19:59.949Z,51.66
2022-08-28T21:22:26.428Z,51.02
2022-08-28T21:24:52.813Z,51.37
2022-08-28T21:27:19.244Z,51.59
2022-08-28T21:29:46.015Z,52.25
2022-08-28T21:32:12.539Z,52.35
2022-08-28T21:34:39.068Z,52.79
2022-08-28T21:37:06.256Z,53.57
2022-08-28T21:39:32.699Z,53.52
2022-08-28T21:41:59.165Z,53.58
2022-08-28T21:44:25.567Z,53.96
2022-08-28T21:46:52.038Z,54.86
2022-08-28T21:49:18.598Z,55.14
2022-08-28T21:51:44.994Z,55.50
2022-08-28T21:54:11.518Z,55.73
2022-08-28T21:56:37.941Z,55.37
2022-08-28T21:59:04.446Z,55.29
2022-08-28T22:01:31.044Z,56.11
2022-08-28T22:03:57.640Z,56.60
2022-08-28T22:06:25.292Z,56.41
2022-08-28T22:08:52.861Z,56.54
2022-08-28T22:11:24.497Z,56.80
2022-08-28T22:13:52.520Z,57.26
2022-08-28T22:16:19.717Z,56.92
2022-08-28T22:18:46.261Z,57.82
2022-08-28T22:21:34.740Z,57.06
2022-08-28T22:24:01.827Z,56.42
2022-08-28T22:26:28.343Z,56.80
2022-08-28T22:28:55.849Z,57.88
2022-08-28T22:31:22.333Z,57.46
2022-08-28T22:33:48.876Z,57.35
2022-08-28T22:36:17.333Z,57.33
2022-08-28T22:38:49.770Z,57.66
2022-08-28T22:41:20.164Z,57.96
2022-08-28T22:43:48.281Z,57.28
2022-08-28T22:46:16.813Z,57.57
2022-08-28T22:48:43.292Z,57.45
2022-08-28T22:51:13.753Z,57.08
2022-08-28T22:53:42.300Z,56.76
2022-08-28T22:56:10.072Z,56.97
2022-08-28T22:58:37.177Z,56.78
2022-08-28T23:01:17.601Z,56.84
2022-08-28T23:03:44.957Z,57.10
2022-08-28T23:06:12.052Z,57.72
2022-08-28T23:08:38.570Z,58.02
2022-08-28T23:11:05.762Z,57.72
2022-08-28T23:13:33.071Z,58.13
2022-08-28T23:16:01.702Z,57.90
2022-08-28T23:18:28.834Z,58.15
2022-08-28T23:20:56.017Z,58.50
2022-08-28T23:23:23.375Z,59.11
2022-08-28T23:25:50.433Z,58.97
2022-08-28T23:28:17.783Z,59.17
2022-08-28T23:30:48.541Z,60.05
2022-08-28T23:33:23.785Z,59.94
2022-08-28T23:35:51.882Z,60.35
2022-08-28T23:38:18.744Z,60.73
2022-08-28T23:40:46.021Z,61.55
2022-08-28T23:43:12.417Z,62.09
2022-08-28T23:45:40.690Z,62.37
2022-08-28T23:48:07.789Z,62.37
2022-08-28T23:50:34.487Z,62.23
2022-08-28T23:53:01.305Z,62.46
2022-08-28T23:55:28.028Z,63.20
2022-08-28T23:57:54.465Z,63.55
